Time;durP1;ratioP1;P1;durP2;ratioP2;P2;SDS_P1;SDS_P2;PMS_P1;PMS_P2;Temp;Humidity;BMP_temperature;BMP_pressure;BME280_temperature;BME280_humidity;BME280_pressure;Samples;Min_cycle;Max_cycle;Signal;HPM_P1;HPM_P2
2022/03/12 00:01:27;;;;;;;19.20;11.75;;;;;;;8.94;46.15;101117.69;5233155;28;20037;-68
2022/03/12 00:03:59;;;;;;;19.15;11.90;;;;;;;8.93;46.13;101117.78;5230825;28;20041;-68
2022/03/12 00:06:30;;;;;;;16.55;10.70;;;;;;;8.94;46.17;101124.81;5228905;28;20030;-68
2022/03/12 00:09:02;;;;;;;15.90;10.60;;;;;;;8.93;45.83;101120.44;5230883;28;20041;-68
2022/03/12 00:11:46;;;;;;;17.63;10.63;;;;;;;8.91;47.13;101122.34;5226287;28;20086;-68
2022/03/12 00:14:22;;;;;;;18.90;12.13;;;;;;;8.95;46.80;101121.19;5240235;28;20608;-68
2022/03/12 00:16:54;;;;;;;15.68;11.27;;;;;;;8.95;47.24;101122.03;5240410;28;20064;-68
2022/03/12 00:19:25;;;;;;;17.30;11.57;;;;;;;8.94;47.59;101128.34;5239218;28;20455;-68
2022/03/12 00:21:58;;;;;;;16.65;11.48;;;;;;;8.90;48.10;101126.81;5239847;28;20460;-68
2022/03/12 00:24:29;;;;;;;22.55;11.45;;;;;;;8.91;47.97;101130.34;5241788;28;20103;-68
2022/03/12 00:27:01;;;;;;;16.10;10.63;;;;;;;8.93;47.50;101131.09;5241794;28;20026;-68
2022/03/12 00:29:32;;;;;;;15.82;11.02;;;;;;;8.86;48.66;101132.44;5240897;28;20031;-68
2022/03/12 00:32:06;;;;;;;18.42;11.48;;;;;;;8.93;46.97;101136.41;5246753;28;20044;-68
2022/03/12 00:34:37;;;;;;;17.17;11.52;;;;;;;8.96;46.92;101137.06;5234396;28;20033;-68
2022/03/12 00:37:09;;;;;;;17.75;11.57;;;;;;;8.92;48.37;101140.88;5233672;28;20026;-68
2022/03/12 00:39:44;;;;;;;17.27;11.10;;;;;;;8.99;47.21;101146.66;5230533;28;20037;-68
2022/03/12 00:42:15;;;;;;;19.73;11.60;;;;;;;9.00;47.83;101145.72;5233806;28;20024;-68
2022/03/12 00:44:47;;;;;;;20.05;11.48;;;;;;;9.00;49.05;101148.38;5234871;28;21123;-68
2022/03/12 00:47:18;;;;;;;18.77;11.73;;;;;;;8.96;49.79;101146.88;5237401;28;20034;-68
2022/03/12 00:49:50;;;;;;;17.10;11.27;;;;;;;8.90;50.19;101158.75;5238695;28;20029;-68
2022/03/12 00:52:21;;;;;;;16.52;11.52;;;;;;;8.91;51.44;101154.28;5244721;28;20048;-68
2022/03/12 00:54:53;;;;;;;18.70;11.40;;;;;;;8.88;51.84;101157.13;5241633;28;20049;-68
2022/03/12 00:57:24;;;;;;;21.95;12.43;;;;;;;8.82;52.28;101155.72;5242406;28;20025;-68
2022/03/12 00:59:55;;;;;;;18.02;11.85;;;;;;;8.83;51.39;101160.09;5233020;28;20052;-68
2022/03/12 01:02:26;;;;;;;18.98;11.45;;;;;;;8.86;51.43;101161.69;5239683;28;20032;-68
2022/03/12 01:04:58;;;;;;;19.02;11.88;;;;;;;8.89;51.02;101141.06;5242506;28;20335;-68
2022/03/12 01:07:29;;;;;;;18.13;11.93;;;;;;;8.95;50.80;101153.13;5247611;28;20033;-68
2022/03/12 01:10:00;;;;;;;18.20;11.70;;;;;;;8.99;50.84;101158.16;5241404;28;20049;-68
2022/03/12 01:12:31;;;;;;;17.73;11.90;;;;;;;9.02;51.29;101151.78;5243448;28;20056;-67
2022/03/12 01:15:05;;;;;;;17.42;11.60;;;;;;;9.01;51.54;101156.25;5241155;28;20047;-68
2022/03/12 01:17:39;;;;;;;19.83;12.23;;;;;;;9.01;51.89;101148.28;5239395;28;20141;-68
2022/03/12 01:20:10;;;;;;;20.98;12.07;;;;;;;8.96;54.17;101150.38;5238116;28;20033;-68
2022/03/12 01:22:41;;;;;;;20.45;12.80;;;;;;;8.88;55.94;101151.81;5242360;28;20079;-68
2022/03/12 01:25:13;;;;;;;19.63;12.05;;;;;;;8.74;58.38;101164.19;5230696;28;20520;-68
2022/03/12 01:27:44;;;;;;;19.15;12.82;;;;;;;8.59;57.92;101167.81;5239353;28;20028;-68
2022/03/12 01:30:26;;;;;;;22.38;12.90;;;;;;;8.44;60.77;101169.66;5241200;28;20021;-68
2022/03/12 01:32:58;;;;;;;20.60;13.48;;;;;;;8.28;63.48;101166.19;5240338;28;20090;-68
2022/03/12 01:35:30;;;;;;;22.42;13.98;;;;;;;8.16;66.08;101173.97;5242647;28;20207;-68
2022/03/12 01:38:02;;;;;;;19.10;13.27;;;;;;;8.05;65.78;101185.28;5248118;28;20037;-68
2022/03/12 01:40:34;;;;;;;20.65;13.57;;;;;;;7.97;68.06;101179.53;5234618;28;20439;-68
2022/03/12 01:43:06;;;;;;;22.35;14.30;;;;;;;7.85;70.65;101189.13;5244228;28;20041;-67
2022/03/12 01:45:37;;;;;;;23.98;14.98;;;;;;;7.73;73.03;101181.00;5232784;28;20047;-67
2022/03/12 01:48:08;;;;;;;22.10;14.02;;;;;;;7.59;72.25;101177.41;5246362;28;20033;-67
2022/03/12 01:50:40;;;;;;;21.85;15.30;;;;;;;7.46;76.77;101182.56;5242523;28;20483;-67
2022/03/12 01:53:11;;;;;;;22.30;15.43;;;;;;;7.33;78.02;101178.06;5243174;28;20039;-67
2022/03/12 01:55:43;;;;;;;23.38;15.88;;;;;;;7.25;78.50;101176.69;5239083;28;20545;-67
2022/03/12 01:58:14;;;;;;;25.27;15.88;;;;;;;7.18;77.60;101172.66;5249374;28;20026;-67
2022/03/12 02:00:49;;;;;;;27.15;16.45;;;;;;;7.09;78.55;101174.97;5239848;28;20030;-67
2022/03/12 02:03:22;;;;;;;24.77;15.10;;;;;;;7.01;79.52;101168.31;5244939;28;20072;-67
2022/03/12 02:05:54;;;;;;;23.33;15.95;;;;;;;6.95;79.69;101175.78;5247193;28;20055;-67
2022/03/12 02:08:27;;;;;;;23.20;14.95;;;;;;;6.90;80.33;101169.84;5246973;28;20552;-67
2022/03/12 02:10:59;;;;;;;24.08;15.82;;;;;;;6.87;79.18;101171.75;5244254;28;20119;-67
2022/03/12 02:13:31;;;;;;;23.30;16.08;;;;;;;6.86;79.17;101161.22;5245570;28;20517;-68
2022/03/12 02:16:08;;;;;;;25.23;15.25;;;;;;;6.84;79.24;101171.91;5240663;28;20040;-68
2022/03/12 02:18:46;;;;;;;23.55;15.63;;;;;;;6.91;78.01;101172.44;5243481;28;20041;-68
2022/03/12 02:21:31;;;;;;;20.85;13.88;;;;;;;6.98;75.39;101173.81;5250731;28;20028;-68
2022/03/12 02:24:10;;;;;;;20.75;13.10;;;;;;;7.17;74.60;101178.94;5242833;28;20021;-68
2022/03/12 02:26:43;;;;;;;20.05;13.75;;;;;;;7.23;74.75;101175.91;5241685;28;20677;-68
2022/03/12 02:29:19;;;;;;;20.35;13.82;;;;;;;7.36;73.49;101178.69;5241362;28;20033;-68
2022/03/12 02:32:00;;;;;;;18.48;13.07;;;;;;;7.47;71.97;101175.44;5243933;28;20462;-68
2022/03/12 02:34:38;;;;;;;21.63;12.80;;;;;;;7.54;71.79;101178.59;5244927;28;20160;-68
2022/03/12 02:37:11;;;;;;;21.33;13.23;;;;;;;7.60;72.22;101192.38;5235344;28;20544;-68
2022/03/12 02:39:42;;;;;;;21.65;12.95;;;;;;;7.66;71.25;101186.69;5240375;28;20636;-68
2022/03/12 02:42:13;;;;;;;20.45;13.10;;;;;;;7.68;72.70;101186.59;5245775;28;20037;-68
2022/03/12 02:44:49;;;;;;;19.33;12.55;;;;;;;7.74;71.81;101193.34;5243951;28;20037;-68
2022/03/12 02:47:25;;;;;;;19.40;12.75;;;;;;;7.76;71.15;101186.16;5245187;28;20068;-68
2022/03/12 02:50:04;;;;;;;20.17;13.15;;;;;;;7.80;70.07;101199.16;5246703;28;20421;-68
2022/03/12 02:52:39;;;;;;;17.20;12.13;;;;;;;7.85;70.28;101196.22;5240778;28;20059;-68
2022/03/12 02:55:17;;;;;;;18.88;12.13;;;;;;;7.88;69.64;101212.00;5247141;28;20044;-68
2022/03/12 02:57:49;;;;;;;19.33;12.60;;;;;;;7.89;69.61;101207.53;5241983;28;20056;-68
2022/03/12 03:00:21;;;;;;;19.35;12.25;;;;;;;7.91;68.96;101206.50;5238063;28;20554;-68
2022/03/12 03:02:56;;;;;;;20.08;12.52;;;;;;;7.88;69.33;101217.31;5238419;28;20026;-68
2022/03/12 03:05:41;;;;;;;21.90;12.85;;;;;;;7.90;68.50;101204.81;5244325;28;20289;-68
2022/03/12 03:08:15;;;;;;;;;;;;;;;7.83;69.11;101201.63;5238854;28;20505;-68
2022/03/12 03:10:52;;;;;;;21.90;12.40;;;;;;;7.87;68.61;101202.31;5226719;28;19956;-67
2022/03/12 03:13:23;;;;;;;21.88;13.48;;;;;;;7.79;68.53;101197.44;5229150;28;20040;-68
2022/03/12 03:15:59;;;;;;;19.85;12.55;;;;;;;7.73;69.54;101210.22;5229663;28;20022;-68
2022/03/12 03:18:33;;;;;;;19.95;13.13;;;;;;;7.65;70.25;101216.88;5230491;28;21548;-68
2022/03/12 03:21:08;;;;;;;19.48;13.27;;;;;;;7.54;71.46;101221.94;5231750;28;20033;-68
2022/03/12 03:23:43;;;;;;;20.63;12.65;;;;;;;7.51;70.96;101218.59;5226105;28;20502;-68
2022/03/12 03:26:20;;;;;;;18.45;12.63;;;;;;;7.43;71.38;101217.22;5226176;28;20025;-68
2022/03/12 03:28:51;;;;;;;19.85;13.13;;;;;;;7.40;73.06;101205.94;5228899;28;20044;-68
2022/03/12 03:31:23;;;;;;;19.10;12.15;;;;;;;7.37;73.31;101214.09;5219653;28;20112;-68
2022/03/12 03:33:54;;;;;;;16.13;11.18;;;;;;;7.30;74.46;101213.56;5222449;28;20067;-68
2022/03/12 03:36:25;;;;;;;15.40;11.23;;;;;;;7.29;75.93;101221.59;5229722;28;20025;-68
2022/03/12 03:38:57;;;;;;;19.50;11.10;;;;;;;7.26;76.55;101227.97;5230217;28;20432;-68
2022/03/12 03:41:28;;;;;;;17.90;11.02;;;;;;;7.23;76.87;101223.69;5224365;28;20025;-67
2022/03/12 03:44:00;;;;;;;17.00;11.40;;;;;;;7.18;77.59;101223.09;5227822;28;20029;-68
2022/03/12 03:46:33;;;;;;;17.23;11.35;;;;;;;7.17;77.69;101226.69;5225998;28;20118;-68
2022/03/12 03:49:05;;;;;;;16.73;10.48;;;;;;;7.15;77.67;101228.59;5230046;28;20025;-68
2022/03/12 03:51:41;;;;;;;16.88;11.30;;;;;;;7.13;78.28;101234.91;5227654;28;20418;-68
2022/03/12 03:54:14;;;;;;;16.70;11.32;;;;;;;7.09;78.05;101226.25;5228401;28;20036;-68
2022/03/12 03:56:46;;;;;;;20.02;11.15;;;;;;;7.05;78.54;101233.50;5225175;28;20447;-68
2022/03/12 03:59:17;;;;;;;18.50;11.50;;;;;;;7.03;78.61;101230.09;5228941;28;20118;-68
2022/03/12 04:01:49;;;;;;;16.00;11.02;;;;;;;6.94;78.84;101240.34;5225713;28;20029;-68
2022/03/12 04:04:20;;;;;;;15.00;10.07;;;;;;;6.91;80.73;101238.75;5229148;28;20518;-68
2022/03/12 04:06:53;;;;;;;15.85;11.25;;;;;;;6.82;81.41;101237.44;5226453;28;20024;-67
2022/03/12 04:09:25;;;;;;;18.27;11.57;;;;;;;6.74;80.97;101249.41;5228317;28;20064;-68
2022/03/12 04:11:56;;;;;;;14.75;10.20;;;;;;;6.82;81.91;101244.53;5221482;28;20122;-68
2022/03/12 04:14:28;;;;;;;14.57;10.02;;;;;;;6.76;82.70;101251.03;5225753;28;20656;-68
2022/03/12 04:16:59;;;;;;;16.42;9.85;;;;;;;6.76;83.09;101256.34;5235072;28;20129;-68
2022/03/12 04:19:30;;;;;;;16.17;9.75;;;;;;;6.64;84.08;101249.06;5227357;28;20497;-68
2022/03/12 04:22:03;;;;;;;13.00;8.60;;;;;;;6.72;85.51;101257.44;5229224;28;20462;-68
2022/03/12 04:24:35;;;;;;;13.38;8.90;;;;;;;6.70;86.27;101256.69;5259074;28;20044;-68
2022/03/12 04:27:07;;;;;;;11.38;8.23;;;;;;;6.68;86.40;101251.44;5229407;28;20041;-68
2022/03/12 04:29:38;;;;;;;11.50;8.00;;;;;;;6.63;86.49;101263.22;5227589;28;20459;-68
2022/03/12 04:32:10;;;;;;;13.05;8.10;;;;;;;6.48;87.26;101260.47;5222193;28;20040;-68
2022/03/12 04:34:42;;;;;;;12.50;8.48;;;;;;;6.54;87.95;101253.13;5227749;28;20037;-68
2022/03/12 04:37:13;;;;;;;12.93;8.40;;;;;;;6.51;87.64;101264.75;5228036;28;20069;-68
2022/03/12 04:39:47;;;;;;;11.98;7.60;;;;;;;6.46;88.35;101266.78;5225489;28;20071;-67
2022/03/12 04:42:21;;;;;;;12.07;7.80;;;;;;;6.46;88.69;101267.66;5229212;28;20791;-68
2022/03/12 04:44:52;;;;;;;11.20;7.47;;;;;;;6.42;89.49;101265.22;5224128;28;20025;-67
2022/03/12 04:47:24;;;;;;;12.88;7.93;;;;;;;6.40;89.79;101262.66;5225910;28;20468;-68
2022/03/12 04:49:56;;;;;;;12.32;7.72;;;;;;;6.27;89.99;101259.81;5224311;28;20030;-68
2022/03/12 04:52:27;;;;;;;11.70;7.65;;;;;;;6.34;90.26;101268.28;5227041;28;20064;-68
2022/03/12 04:54:58;;;;;;;12.20;7.63;;;;;;;6.31;91.03;101260.50;5223996;28;20036;-68
2022/03/12 04:57:29;;;;;;;10.80;7.82;;;;;;;6.30;91.54;101271.19;5243286;28;20479;-68
2022/03/12 05:00:04;;;;;;;10.77;7.68;;;;;;;6.32;91.89;101277.25;5237091;28;20041;-68
2022/03/12 05:02:35;;;;;;;;;;;;;;;6.26;87.95;101279.28;5228466;28;20033;-68
2022/03/12 05:05:11;;;;;;;15.15;7.80;;;;;;;6.32;92.16;101279.91;5228655;28;19931;-67
2022/03/12 05:07:44;;;;;;;11.68;7.82;;;;;;;6.28;92.50;101276.56;5232263;28;20062;-68
2022/03/12 05:10:17;;;;;;;11.47;7.60;;;;;;;6.25;92.96;101276.69;5246560;28;20277;-67
2022/03/12 05:12:51;;;;;;;13.48;7.65;;;;;;;6.20;93.26;101271.66;5246801;28;20060;-67
2022/03/12 05:15:22;;;;;;;10.88;7.30;;;;;;;6.21;93.87;101276.03;5233730;28;21338;-68
2022/03/12 05:17:56;;;;;;;10.60;7.63;;;;;;;6.17;94.01;101276.25;5233041;28;20037;-67
2022/03/12 05:20:27;;;;;;;12.23;7.63;;;;;;;6.14;94.79;101284.38;5230338;28;20048;-68
2022/03/12 05:22:59;;;;;;;12.88;7.88;;;;;;;6.06;95.35;101290.91;5237439;28;20037;-68
2022/03/12 05:25:32;;;;;;;13.40;8.10;;;;;;;6.14;95.65;101293.16;5236463;28;20167;-68
2022/03/12 05:28:03;;;;;;;10.88;7.40;;;;;;;6.06;96.67;101296.19;5229746;28;20479;-68
2022/03/12 05:30:35;;;;;;;10.48;7.18;;;;;;;6.06;96.05;101292.69;5234362;28;20061;-67
2022/03/12 05:33:06;;;;;;;11.20;7.50;;;;;;;6.09;96.59;101296.03;5234169;28;20041;-68
2022/03/12 05:35:42;;;;;;;12.82;7.80;;;;;;;5.94;96.32;101291.47;5235693;28;20033;-67
2022/03/12 05:38:13;;;;;;;12.15;7.45;;;;;;;5.97;96.70;101304.59;5236071;28;20033;-67
2022/03/12 05:40:46;;;;;;;12.55;7.70;;;;;;;5.94;96.79;101306.50;5233482;28;20041;-68
2022/03/12 05:43:18;;;;;;;12.70;7.43;;;;;;;5.92;97.35;101316.31;5233496;28;20102;-68
2022/03/12 05:45:52;;;;;;;10.48;7.50;;;;;;;5.90;97.34;101311.94;5234035;28;20029;-67
2022/03/12 05:48:24;;;;;;;11.95;8.20;;;;;;;5.92;97.56;101311.88;5234579;28;20033;-67
2022/03/12 05:50:55;;;;;;;11.07;7.75;;;;;;;5.88;97.63;101316.47;5233021;28;20068;-68
2022/03/12 05:53:30;;;;;;;10.45;7.47;;;;;;;5.81;97.86;101314.19;5232835;28;20025;-68
2022/03/12 05:56:01;;;;;;;;;;;;;;;5.82;94.65;101331.81;5235135;28;20107;-68
2022/03/12 05:58:38;;;;;;;13.27;7.97;;;;;;;5.86;97.40;101322.78;5234908;28;19917;-67
2022/03/12 06:01:09;;;;;;;12.38;8.00;;;;;;;5.85;98.93;101321.09;5238473;28;20056;-68
2022/03/12 06:03:41;;;;;;;13.93;8.20;;;;;;;5.85;99.19;101323.72;5234280;28;20171;-67
2022/03/12 06:06:13;;;;;;;13.18;8.63;;;;;;;5.88;99.61;101318.25;5236101;28;20453;-68
2022/03/12 06:08:45;;;;;;;12.02;7.82;;;;;;;5.84;99.71;101322.84;5232925;28;20037;-67
2022/03/12 06:11:16;;;;;;;13.10;8.30;;;;;;;5.85;100.00;101319.28;5233325;28;20032;-68
2022/03/12 06:13:59;;;;;;;11.90;8.10;;;;;;;5.84;100.00;101308.75;5233498;28;20613;-68
2022/03/12 06:16:31;;;;;;;12.02;8.40;;;;;;;5.90;100.00;101321.69;5235351;28;20147;-68
2022/03/12 06:19:02;;;;;;;12.45;8.35;;;;;;;5.93;100.00;101324.19;5232054;28;20037;-67
2022/03/12 06:21:34;;;;;;;11.75;8.00;;;;;;;5.88;100.00;101326.22;5215733;28;20367;-67
2022/03/12 06:24:05;;;;;;;13.95;8.20;;;;;;;5.91;100.00;101334.00;5225385;28;20130;-68
2022/03/12 06:26:39;;;;;;;15.43;8.73;;;;;;;5.95;100.00;101334.72;5223371;28;20036;-67
2022/03/12 06:29:13;;;;;;;13.50;8.87;;;;;;;5.95;100.00;101337.38;5227405;28;20387;-68
2022/03/12 06:31:44;;;;;;;14.07;9.00;;;;;;;5.99;100.00;101337.16;5224874;28;20116;-67
2022/03/12 06:34:15;;;;;;;12.73;8.77;;;;;;;6.04;100.00;101340.47;5230160;28;20141;-68
2022/03/12 06:36:47;;;;;;;13.55;9.45;;;;;;;6.11;100.00;101345.44;5226361;28;20064;-68
2022/03/12 06:39:18;;;;;;;15.15;9.23;;;;;;;6.11;100.00;101345.44;5236986;28;20037;-68
2022/03/12 06:41:51;;;;;;;12.98;8.82;;;;;;;6.13;100.00;101346.22;5237251;28;20445;-67
2022/03/12 06:44:23;;;;;;;12.23;8.13;;;;;;;6.21;100.00;101341.38;5238895;28;20078;-68
2022/03/12 06:46:54;;;;;;;13.48;8.88;;;;;;;6.28;100.00;101356.06;5231535;28;20043;-67
2022/03/12 06:49:26;;;;;;;14.13;8.82;;;;;;;6.31;100.00;101355.03;5226992;28;20767;-67
2022/03/12 06:51:58;;;;;;;13.27;8.38;;;;;;;6.38;100.00;101357.28;5227186;28;20059;-68
2022/03/12 06:54:29;;;;;;;11.73;8.80;;;;;;;6.39;100.00;101361.66;5225969;28;20112;-68
2022/03/12 06:57:04;;;;;;;13.30;8.55;;;;;;;6.46;100.00;101359.53;5225200;28;20041;-67
2022/03/12 06:59:35;;;;;;;13.38;8.50;;;;;;;6.50;100.00;101363.78;5225491;28;20039;-67
2022/03/12 07:02:07;;;;;;;12.50;7.97;;;;;;;6.58;100.00;101368.69;5230112;28;20553;-68
2022/03/12 07:04:38;;;;;;;12.48;8.32;;;;;;;6.66;100.00;101371.81;5224900;28;20507;-67
2022/03/12 07:07:10;;;;;;;13.00;8.32;;;;;;;6.67;100.00;101366.41;5224135;28;20043;-68
2022/03/12 07:09:41;;;;;;;12.30;8.10;;;;;;;6.76;100.00;101365.06;5228374;28;20036;-67
2022/03/12 07:12:12;;;;;;;14.35;8.30;;;;;;;6.80;100.00;101371.94;5227030;28;20032;-68
2022/03/12 07:14:44;;;;;;;12.45;8.43;;;;;;;6.83;100.00;101373.59;5223715;28;20404;-68
2022/03/12 07:17:15;;;;;;;12.13;8.15;;;;;;;6.90;100.00;101372.28;5226411;28;20022;-68
2022/03/12 07:19:46;;;;;;;14.30;8.18;;;;;;;6.95;100.00;101380.03;5226782;28;20286;-68
2022/03/12 07:22:18;;;;;;;11.57;7.95;;;;;;;7.00;100.00;101377.97;5228177;28;20025;-67
2022/03/12 07:24:49;;;;;;;12.63;7.88;;;;;;;7.04;99.53;101382.19;5223141;28;20032;-68
2022/03/12 07:27:21;;;;;;;10.90;7.70;;;;;;;7.05;99.78;101381.25;5225423;28;20025;-67
2022/03/12 07:29:52;;;;;;;11.98;8.80;;;;;;;7.12;99.20;101395.06;5224143;28;20859;-67
2022/03/12 07:32:26;;;;;;;11.25;8.00;;;;;;;7.13;99.47;101392.31;5228367;28;20040;-68
2022/03/12 07:34:58;;;;;;;12.15;7.97;;;;;;;7.19;99.13;101393.78;5224669;28;20083;-68
2022/03/12 07:37:29;;;;;;;13.48;8.55;;;;;;;7.24;98.96;101408.50;5223034;28;20026;-68
2022/03/12 07:40:01;;;;;;;11.43;8.07;;;;;;;7.29;98.69;101410.06;5223285;28;20084;-68
2022/03/12 07:42:33;;;;;;;10.93;8.18;;;;;;;7.37;98.89;101413.19;5224584;28;20037;-68
2022/03/12 07:45:07;;;;;;;13.20;8.60;;;;;;;7.44;98.56;101418.06;5223509;28;20041;-68
2022/03/12 07:47:39;;;;;;;11.38;8.35;;;;;;;7.47;98.64;101414.38;5224430;28;20036;-68
2022/03/12 07:50:11;;;;;;;12.55;9.00;;;;;;;7.55;98.02;101422.78;5223436;28;20029;-68
2022/03/12 07:52:42;;;;;;;14.35;8.13;;;;;;;7.64;97.79;101424.94;5222946;28;20072;-68
2022/03/12 07:55:16;;;;;;;12.18;8.18;;;;;;;7.71;97.51;101427.25;5222088;28;20385;-68
2022/03/12 07:57:47;;;;;;;12.10;7.90;;;;;;;7.78;96.77;101420.66;5223815;28;20044;-68
2022/03/12 08:00:19;;;;;;;12.48;7.65;;;;;;;7.87;96.72;101429.94;5225245;28;20024;-68
2022/03/12 08:02:50;;;;;;;10.88;7.35;;;;;;;7.95;96.38;101430.34;5239802;28;20475;-68
2022/03/12 08:05:23;;;;;;;11.00;8.10;;;;;;;8.02;95.99;101429.06;5244537;28;20487;-68
2022/03/12 08:07:55;;;;;;;11.80;8.85;;;;;;;8.06;95.27;101425.28;5243387;28;20245;-68
2022/03/12 08:10:26;;;;;;;11.50;7.90;;;;;;;8.12;95.64;101440.03;5240793;28;20055;-68
2022/03/12 08:12:58;;;;;;;12.43;8.43;;;;;;;8.17;94.63;101438.84;5244398;28;20044;-67
2022/03/12 08:15:29;;;;;;;11.98;8.00;;;;;;;8.19;94.79;101441.41;5241487;28;20035;-68
2022/03/12 08:18:00;;;;;;;13.05;8.63;;;;;;;8.23;94.71;101442.94;5240471;28;20041;-68
2022/03/12 08:20:32;;;;;;;10.18;7.53;;;;;;;8.27;94.58;101446.28;5243243;28;20033;-68
2022/03/12 08:23:04;;;;;;;11.50;8.35;;;;;;;8.33;94.22;101449.44;5233813;28;20037;-68
2022/03/12 08:25:36;;;;;;;13.23;8.45;;;;;;;8.38;94.28;101449.16;5240745;28;20490;-68
2022/03/12 08:28:08;;;;;;;11.38;7.40;;;;;;;8.46;94.00;101448.75;5231847;28;20056;-68
2022/03/12 08:30:39;;;;;;;11.95;7.97;;;;;;;8.54;93.74;101463.34;5229111;28;20115;-68
2022/03/12 08:33:10;;;;;;;13.23;7.75;;;;;;;8.62;93.46;101468.22;5234816;28;20044;-68
2022/03/12 08:35:41;;;;;;;10.88;7.80;;;;;;;8.71;93.34;101470.34;5237123;28;20490;-68
2022/03/12 08:38:13;;;;;;;11.93;8.07;;;;;;;8.81;92.88;101474.16;5230737;28;20471;-68
2022/03/12 08:40:44;;;;;;;12.40;8.10;;;;;;;8.86;93.23;101473.03;5231919;28;20116;-68
2022/03/12 08:43:16;;;;;;;16.45;9.82;;;;;;;8.93;92.56;101477.91;5234221;28;20183;-68
2022/03/12 08:45:48;;;;;;;16.95;10.05;;;;;;;9.04;91.67;101477.25;5233101;28;20729;-68
2022/03/12 08:48:19;;;;;;;36.70;23.48;;;;;;;9.14;91.62;101481.06;5235648;28;20031;-68
2022/03/12 08:50:51;;;;;;;15.55;11.63;;;;;;;9.20;91.27;101485.19;5230549;28;20033;-68
2022/03/12 08:53:22;;;;;;;13.80;9.23;;;;;;;9.33;91.25;101480.81;5245600;28;20036;-68
2022/03/12 08:55:53;;;;;;;10.52;7.82;;;;;;;9.42;90.17;101484.75;5246000;28;20027;-68
2022/03/12 08:58:25;;;;;;;8.63;5.38;;;;;;;9.54;88.29;101486.63;5240404;28;20091;-68
2022/03/12 09:01:01;;;;;;;10.43;5.28;;;;;;;9.65;87.89;101493.13;5244445;28;20028;-68
2022/03/12 09:03:33;;;;;;;8.50;5.10;;;;;;;9.72;87.98;101487.31;5249429;28;20108;-68
2022/03/12 09:06:05;;;;;;;9.05;5.00;;;;;;;9.89;85.99;101478.22;5241802;28;20052;-68
2022/03/12 09:08:36;;;;;;;7.97;5.13;;;;;;;10.10;85.14;101488.50;5245708;28;20147;-68
2022/03/12 09:11:08;;;;;;;7.20;4.00;;;;;;;10.16;85.47;101488.97;5251075;28;20028;-68
2022/03/12 09:13:39;;;;;;;10.27;4.80;;;;;;;10.28;83.93;101489.09;5246742;28;20060;-68
2022/03/12 09:16:10;;;;;;;10.15;4.45;;;;;;;10.37;82.91;101480.53;5248191;28;20360;-68
2022/03/12 09:18:44;;;;;;;8.95;4.43;;;;;;;10.47;81.95;101488.78;5244801;28;20390;-68
2022/03/12 09:21:15;;;;;;;8.55;4.47;;;;;;;10.51;81.57;101491.16;5252604;28;20568;-68
2022/03/12 09:23:46;;;;;;;11.48;4.63;;;;;;;10.63;80.73;101492.16;5243147;28;20033;-68
2022/03/12 09:26:21;;;;;;;7.80;4.22;;;;;;;10.70;79.84;101500.59;5240634;28;20116;-68
2022/03/12 09:28:53;;;;;;;10.75;4.30;;;;;;;10.79;79.18;101497.31;5248256;28;21898;-68
2022/03/12 09:31:24;;;;;;;9.73;4.32;;;;;;;10.89;78.75;101485.09;5250451;28;20033;-68
2022/03/12 09:33:56;;;;;;;7.65;3.97;;;;;;;10.86;78.42;101489.78;5249242;28;20045;-67
2022/03/12 09:36:27;;;;;;;9.93;3.92;;;;;;;10.99;77.27;101488.00;5252242;28;20037;-68
2022/03/12 09:38:59;;;;;;;8.57;3.55;;;;;;;11.07;77.46;101492.81;5248056;28;20029;-68
2022/03/12 09:41:30;;;;;;;7.82;3.15;;;;;;;11.15;75.98;101493.97;5250763;28;20114;-68
2022/03/12 09:44:02;;;;;;;7.50;3.10;;;;;;;11.37;75.05;101492.50;5252521;28;20036;-68
2022/03/12 09:46:34;;;;;;;6.63;3.40;;;;;;;11.48;74.20;101500.63;5259200;28;20026;-68
2022/03/12 09:49:05;;;;;;;7.00;2.80;;;;;;;11.58;71.57;101492.81;5246199;28;20063;-68
2022/03/12 09:51:37;;;;;;;8.80;2.60;;;;;;;11.66;71.04;101495.81;5242498;28;20550;-68
2022/03/12 09:54:08;;;;;;;7.70;2.97;;;;;;;11.79;70.32;101495.78;5248475;28;20041;-68
2022/03/12 09:56:40;;;;;;;6.13;2.83;;;;;;;11.85;70.09;101502.50;5248219;28;20452;-68
2022/03/12 09:59:11;;;;;;;8.43;2.78;;;;;;;11.94;69.19;101508.09;5247876;28;20065;-68
2022/03/12 10:01:42;;;;;;;6.57;3.15;;;;;;;12.01;68.39;101502.31;5243567;28;20487;-68
2022/03/12 10:04:14;;;;;;;8.25;2.65;;;;;;;11.99;69.83;101502.41;5249767;28;20040;-68
2022/03/12 10:06:46;;;;;;;7.65;2.88;;;;;;;12.11;68.29;101504.19;5252243;28;20032;-68
2022/03/12 10:09:17;;;;;;;7.63;2.90;;;;;;;12.15;68.79;101505.69;5246912;28;20072;-68
2022/03/12 10:11:51;;;;;;;9.48;2.80;;;;;;;12.28;67.61;101505.66;5246063;28;20032;-69
2022/03/12 10:14:24;;;;;;;7.07;2.85;;;;;;;12.41;67.84;101512.78;5244436;28;20053;-68
2022/03/12 10:16:55;;;;;;;6.78;2.85;;;;;;;12.46;67.07;101518.66;5242634;28;20033;-68
2022/03/12 10:19:27;;;;;;;8.65;2.80;;;;;;;12.40;65.70;101522.63;5243869;28;20075;-68
2022/03/12 10:21:59;;;;;;;10.27;2.67;;;;;;;12.32;65.72;101520.50;5251062;28;20032;-68
2022/03/12 10:24:30;;;;;;;8.75;2.95;;;;;;;12.31;66.47;101518.81;5244149;28;20041;-69
2022/03/12 10:27:03;;;;;;;7.43;2.72;;;;;;;12.25;65.42;101526.41;5245002;28;20036;-69
2022/03/12 10:29:36;;;;;;;8.02;2.70;;;;;;;12.23;65.32;101514.97;5253432;28;20068;-69
2022/03/12 10:32:24;;;;;;;8.35;2.30;;;;;;;12.25;67.06;101507.69;5248100;28;20047;-69
2022/03/12 10:34:59;;;;;;;6.68;2.35;;;;;;;12.14;67.03;101501.31;5244282;28;20036;-69
2022/03/12 10:37:32;;;;;;;7.97;2.92;;;;;;;12.22;65.99;101507.94;5246305;28;20033;-69
2022/03/12 10:40:14;;;;;;;7.05;2.10;;;;;;;12.21;67.31;101511.56;5241423;28;20033;-69
2022/03/12 10:42:51;;;;;;;8.40;2.50;;;;;;;12.16;65.09;101511.91;5245616;28;20744;-69
2022/03/12 10:45:28;;;;;;;5.90;2.00;;;;;;;12.25;66.25;101519.25;5243718;28;20032;-69
2022/03/12 10:48:03;;;;;;;6.03;2.15;;;;;;;12.42;66.41;101515.34;5244064;28;20027;-69
2022/03/12 10:50:43;;;;;;;6.38;2.40;;;;;;;12.41;66.47;101512.78;5245701;28;20021;-69
2022/03/12 10:53:15;;;;;;;5.18;2.10;;;;;;;12.42;64.29;101506.47;5249192;28;20444;-69
2022/03/12 10:55:49;;;;;;;7.47;2.63;;;;;;;12.51;64.21;101511.97;5242522;28;20033;-69
2022/03/12 10:58:27;;;;;;;8.95;2.70;;;;;;;12.36;64.89;101511.28;5240567;28;20030;-69
2022/03/12 11:01:00;;;;;;;6.10;2.10;;;;;;;12.48;63.83;101508.69;5247959;28;20103;-69
2022/03/12 11:03:34;;;;;;;5.13;1.90;;;;;;;12.51;64.48;101511.97;5251887;28;20035;-69
2022/03/12 11:06:06;;;;;;;7.28;2.58;;;;;;;12.56;64.96;101498.28;5252882;28;20035;-69
2022/03/12 11:08:38;;;;;;;6.85;2.30;;;;;;;12.69;64.37;101514.25;5248837;28;20043;-68
2022/03/12 11:11:13;;;;;;;5.43;1.98;;;;;;;12.73;63.87;101513.94;5242819;28;20033;-71
2022/03/12 11:13:50;;;;;;;8.65;2.22;;;;;;;12.76;62.10;101512.84;5252031;28;20049;-69
2022/03/12 11:16:28;;;;;;;7.10;2.08;;;;;;;12.82;61.34;101515.03;5250261;28;20062;-68
2022/03/12 11:19:07;;;;;;;8.73;2.30;;;;;;;12.77;62.79;101519.03;5245984;28;20063;-68
2022/03/12 11:21:50;;;;;;;6.68;2.00;;;;;;;12.89;61.12;101518.13;5237031;28;20025;-69
2022/03/12 11:24:42;;;;;;;6.95;2.28;;;;;;;12.85;62.12;101525.53;5246324;28;20136;-69
2022/03/12 11:27:27;;;;;;;5.50;1.80;;;;;;;12.92;62.70;101512.53;5247919;28;20032;-69
2022/03/12 11:30:07;;;;;;;7.15;2.10;;;;;;;13.05;60.90;101520.50;5251461;28;20079;-69
2022/03/12 11:32:45;;;;;;;7.65;1.70;;;;;;;13.08;60.78;101518.44;5250032;28;20375;-69
2022/03/12 11:35:20;;;;;;;7.85;1.63;;;;;;;13.20;60.15;101515.78;5250384;28;20056;-69
2022/03/12 11:37:51;;;;;;;6.50;2.00;;;;;;;13.14;59.07;101509.94;5241517;28;20044;-69
2022/03/12 11:40:23;;;;;;;7.30;2.20;;;;;;;13.12;60.90;101509.19;5243887;28;20045;-69
2022/03/12 11:42:54;;;;;;;6.15;1.95;;;;;;;13.11;60.07;101504.78;5246712;28;20114;-69
2022/03/12 11:45:27;;;;;;;7.65;2.53;;;;;;;13.24;58.87;101507.38;5249951;28;20064;-69
2022/03/12 11:47:58;;;;;;;7.00;1.70;;;;;;;13.30;58.06;101504.25;5250661;28;20040;-69